Time;durP1;ratioP1;P1;durP2;ratioP2;P2;SDS_P1;SDS_P2;PMS_P1;PMS_P2;Temp;Humidity;BMP_temperature;BMP_pressure;BME280_temperature;BME280_humidity;BME280_pressure;Samples;Min_cycle;Max_cycle;Signal;HPM_P1;HPM_P2
2022/03/22 00:00:24;;;;;;;11.13;7.65;;;9.70;73.40;;;;;;5006196;28;20132;-58
2022/03/22 00:02:52;;;;;;;12.20;7.20;;;9.60;73.60;;;;;;5002225;28;20042;-60
2022/03/22 00:05:20;;;;;;;11.40;8.27;;;9.60;73.60;;;;;;5041157;28;20054;-58
2022/03/22 00:07:48;;;;;;;8.07;6.63;;;9.60;74.00;;;;;;5034887;28;20052;-60
2022/03/22 00:10:15;;;;;;;12.50;8.13;;;9.50;74.00;;;;;;5033650;28;20512;-58
2022/03/22 00:12:43;;;;;;;10.48;5.95;;;9.50;74.00;;;;;;5027351;28;20087;-60
2022/03/22 00:15:12;;;;;;;11.93;7.00;;;9.50;72.90;;;;;;5037573;28;20114;-58
2022/03/22 00:18:03;;;;;;;11.95;6.85;;;9.50;72.90;;;;;;5030829;28;20041;-58
2022/03/22 00:20:31;;;;;;;9.40;7.53;;;9.50;72.80;;;;;;5013644;28;20084;-60
2022/03/22 00:22:59;;;;;;;10.18;5.95;;;9.50;73.20;;;;;;5016902;28;20041;-59
2022/03/22 00:25:27;;;;;;;11.70;7.72;;;9.50;72.70;;;;;;5032482;28;20046;-59
2022/03/22 00:27:55;;;;;;;9.02;6.55;;;9.50;72.30;;;;;;5027984;28;20045;-58
2022/03/22 00:30:32;;;;;;;11.02;7.90;;;9.50;72.30;;;;;;5014470;28;20083;-60
2022/03/22 00:33:03;;;;;;;16.90;8.63;;;9.50;72.00;;;;;;5009693;28;20076;-58
2022/03/22 00:35:36;;;;;;;13.48;7.20;;;9.50;71.80;;;;;;5023857;28;20044;-58
2022/03/22 00:38:18;;;;;;;10.43;7.60;;;9.60;72.10;;;;;;5026454;28;20444;-58
2022/03/22 00:40:47;;;;;;;11.32;6.43;;;9.60;71.90;;;;;;5011606;28;20069;-59
2022/03/22 00:43:15;;;;;;;11.80;6.28;;;9.50;72.10;;;;;;5016959;28;20053;-59
2022/03/22 00:45:43;;;;;;;8.30;6.20;;;9.50;72.40;;;;;;5033570;28;20484;-58
2022/03/22 00:48:14;;;;;;;12.52;7.15;;;9.50;72.30;;;;;;5024644;28;20075;-58
2022/03/22 00:50:46;;;;;;;12.35;6.90;;;9.50;72.40;;;;;;4996888;28;20080;-58
2022/03/22 00:53:18;;;;;;;11.25;7.13;;;9.50;72.50;;;;;;5011240;28;20474;-58
2022/03/22 00:55:48;;;;;;;8.65;6.43;;;9.40;72.00;;;;;;5028636;28;20046;-58
2022/03/22 00:58:15;;;;;;;12.25;7.95;;;9.50;72.40;;;;;;5017262;28;20072;-58
2022/03/22 01:00:43;;;;;;;11.80;7.07;;;9.50;72.50;;;;;;5020163;28;20599;-58
2022/03/22 01:03:11;;;;;;;8.93;7.07;;;9.50;72.20;;;;;;5015563;28;20100;-60
2022/03/22 01:05:38;;;;;;;11.57;7.85;;;9.50;72.40;;;;;;5031903;28;20523;-58
2022/03/22 01:08:08;;;;;;;15.00;6.63;;;9.50;72.80;;;;;;5033977;28;20048;-60
2022/03/22 01:10:39;;;;;;;11.82;6.93;;;9.50;72.90;;;;;;5022915;28;20496;-58
2022/03/22 01:13:07;;;;;;;11.13;7.07;;;9.50;72.70;;;;;;4999791;28;20042;-58
2022/03/22 01:15:36;;;;;;;12.90;8.27;;;9.40;71.90;;;;;;4999043;28;20503;-58
2022/03/22 01:18:07;;;;;;;13.43;8.65;;;9.40;72.00;;;;;;5032569;28;20037;-58
2022/03/22 01:20:36;;;;;;;11.57;8.63;;;9.40;72.80;;;;;;5030724;28;20046;-58
2022/03/22 01:23:07;;;;;;;13.48;8.10;;;9.40;73.60;;;;;;4998701;28;20406;-58
2022/03/22 01:25:36;;;;;;;12.20;8.05;;;9.40;73.60;;;;;;5029806;28;20038;-58
2022/03/22 01:28:07;;;;;;;13.15;6.82;;;9.40;73.00;;;;;;5031537;28;20128;-58
2022/03/22 01:30:36;;;;;;;12.30;7.28;;;9.40;72.10;;;;;;5031497;28;20041;-58
2022/03/22 01:33:04;;;;;;;11.43;7.13;;;9.40;72.60;;;;;;5022500;28;20507;-58
2022/03/22 01:35:32;;;;;;;13.32;8.05;;;9.40;72.40;;;;;;4994614;28;20052;-58
2022/03/22 01:38:00;;;;;;;10.45;7.32;;;9.50;72.40;;;;;;5015489;28;20054;-58
2022/03/22 01:40:30;;;;;;;10.77;7.15;;;9.50;72.60;;;;;;5023983;28;20049;-59
2022/03/22 01:42:58;;;;;;;10.32;6.40;;;9.50;73.00;;;;;;5019503;28;20098;-59
2022/03/22 01:45:28;;;;;;;10.82;6.47;;;9.50;73.30;;;;;;5036470;28;20099;-59
2022/03/22 01:48:00;;;;;;;12.60;8.43;;;9.50;73.00;;;;;;5020109;28;20102;-58
2022/03/22 01:50:29;;;;;;;10.27;6.38;;;9.40;73.20;;;;;;5054029;28;20099;-58
2022/03/22 01:52:59;;;;;;;11.63;7.05;;;9.40;73.70;;;;;;5036389;28;20479;-58
2022/03/22 01:55:27;;;;;;;14.40;7.68;;;9.30;73.60;;;;;;5036378;28;20060;-58
2022/03/22 01:57:56;;;;;;;9.18;7.32;;;9.30;73.20;;;;;;5052633;28;20033;-58
2022/03/22 02:00:25;;;;;;;9.45;7.05;;;9.30;73.40;;;;;;5036114;28;20040;-58
2022/03/22 02:08:25;;;;;;;11.57;6.88;;;9.10;74.70;;;;;;5053724;28;20076;-59
2022/03/22 02:10:53;;;;;;;10.77;7.07;;;9.00;74.80;;;;;;5019647;28;20052;-58
2022/03/22 02:13:21;;;;;;;13.30;7.68;;;9.00;75.00;;;;;;5053639;28;20045;-58
2022/03/22 02:15:52;;;;;;;9.70;6.45;;;8.90;75.00;;;;;;5036106;28;20391;-58
2022/03/22 02:18:19;;;;;;;9.10;6.15;;;8.90;75.30;;;;;;5019811;28;20041;-58
2022/03/22 02:20:47;;;;;;;11.90;6.50;;;8.90;75.20;;;;;;5036026;28;20052;-58
2022/03/22 02:23:17;;;;;;;11.70;6.50;;;9.00;75.20;;;;;;5019844;28;20053;-58
2022/03/22 02:25:49;;;;;;;12.48;7.32;;;8.90;74.60;;;;;;5019493;28;20460;-58
2022/03/22 02:28:20;;;;;;;11.32;7.38;;;9.00;74.80;;;;;;5035870;28;20076;-58
2022/03/22 02:30:52;;;;;;;13.90;6.93;;;9.00;74.40;;;;;;5019664;28;20462;-58
2022/03/22 02:33:20;;;;;;;13.63;6.38;;;9.00;74.00;;;;;;5035526;28;20067;-58
2022/03/22 02:35:48;;;;;;;13.80;7.15;;;9.00;73.90;;;;;;5053343;28;20045;-58
2022/03/22 02:38:15;;;;;;;12.35;6.57;;;9.00;74.10;;;;;;5002749;28;20053;-58
2022/03/22 02:40:45;;;;;;;9.82;6.93;;;9.00;74.00;;;;;;5035623;28;20398;-58
2022/03/22 02:43:13;;;;;;;10.00;6.93;;;9.00;73.60;;;;;;5053440;28;20047;-58
2022/03/22 02:45:40;;;;;;;8.90;6.50;;;9.10;73.80;;;;;;5053490;28;20123;-58
2022/03/22 02:48:08;;;;;;;11.90;6.22;;;9.10;73.80;;;;;;5035719;28;20045;-58
2022/03/22 02:50:35;;;;;;;8.55;5.85;;;9.10;73.80;;;;;;5035803;28;20067;-58
2022/03/22 02:53:03;;;;;;;12.95;6.85;;;9.10;73.60;;;;;;5053166;28;20136;-58
2022/03/22 02:55:30;;;;;;;8.90;5.00;;;9.10;73.30;;;;;;5053063;28;20546;-58
2022/03/22 02:57:58;;;;;;;9.02;5.47;;;9.10;73.50;;;;;;5035533;28;20041;-58
2022/03/22 03:00:26;;;;;;;10.25;5.65;;;9.10;73.70;;;;;;5053162;28;20075;-58
2022/03/22 03:02:54;;;;;;;8.27;5.68;;;9.10;74.40;;;;;;5053080;28;20098;-58
2022/03/22 03:05:23;;;;;;;9.82;6.32;;;9.00;74.30;;;;;;5019263;28;20033;-58
2022/03/22 03:07:54;;;;;;;11.88;6.35;;;9.00;74.50;;;;;;5053412;28;20073;-58
2022/03/22 03:10:22;;;;;;;10.52;5.20;;;9.00;74.80;;;;;;5053140;28;20087;-59
2022/03/22 03:13:02;;;;;;;8.13;5.45;;;9.00;74.80;;;;;;5053050;28;20044;-58
2022/03/22 03:15:30;;;;;;;11.07;6.10;;;9.00;74.30;;;;;;5035274;28;20065;-58
2022/03/22 03:17:58;;;;;;;10.32;5.72;;;8.90;73.60;;;;;;5035001;28;20384;-58
2022/03/22 03:20:27;;;;;;;10.43;6.32;;;8.90;73.10;;;;;;5034896;28;20091;-58
2022/03/22 03:22:55;;;;;;;12.02;6.00;;;9.00;73.50;;;;;;5018786;28;20055;-58
2022/03/22 03:25:22;;;;;;;15.27;7.13;;;9.00;73.30;;;;;;5035399;28;20427;-58
2022/03/22 03:27:52;;;;;;;8.60;6.28;;;8.90;73.00;;;;;;5053049;28;20503;-58
2022/03/22 03:30:20;;;;;;;7.82;5.53;;;9.00;73.00;;;;;;5035134;28;20041;-58
2022/03/22 03:32:48;;;;;;;8.90;5.65;;;9.00;73.00;;;;;;5052817;28;20045;-58
2022/03/22 03:35:15;;;;;;;9.20;5.80;;;9.00;73.00;;;;;;5035129;28;20037;-58
2022/03/22 03:37:46;;;;;;;9.75;6.43;;;9.00;73.00;;;;;;5034956;28;20570;-58
2022/03/22 03:40:13;;;;;;;9.45;7.03;;;8.90;73.00;;;;;;5035069;28;20091;-58
2022/03/22 03:42:45;;;;;;;10.68;7.32;;;8.90;73.20;;;;;;5035053;28;20098;-58
2022/03/22 03:47:59;;;;;;;;;;;8.90;73.50;;;;;;5056760;28;20541;-58
2022/03/22 03:50:27;;;;;;;7.95;6.00;;;8.90;73.80;;;;;;5038818;28;19921;-58
2022/03/22 03:52:55;;;;;;;10.07;6.22;;;8.90;73.70;;;;;;5038589;28;20041;-59
2022/03/22 03:55:22;;;;;;;11.13;7.15;;;8.90;74.00;;;;;;5022072;28;20041;-58
2022/03/22 03:57:50;;;;;;;10.68;6.07;;;8.90;74.50;;;;;;5056141;28;20094;-58
2022/03/22 04:00:19;;;;;;;8.93;6.13;;;8.90;73.90;;;;;;5038479;28;20047;-58
2022/03/22 04:02:46;;;;;;;10.63;6.72;;;8.90;74.00;;;;;;5038447;28;20131;-58
2022/03/22 04:05:16;;;;;;;9.30;5.47;;;8.90;74.00;;;;;;5038350;28;20041;-58
2022/03/22 04:07:44;;;;;;;9.88;6.13;;;8.90;73.70;;;;;;5038343;28;20041;-58
2022/03/22 04:10:12;;;;;;;9.38;5.57;;;8.90;73.60;;;;;;5038498;28;20123;-58
2022/03/22 04:12:41;;;;;;;12.45;5.82;;;8.80;73.60;;;;;;5038206;28;20043;-58
2022/03/22 04:15:09;;;;;;;9.68;6.57;;;8.80;73.60;;;;;;5038106;28;20041;-58
2022/03/22 04:17:38;;;;;;;9.45;5.38;;;8.80;73.60;;;;;;5055803;28;20045;-58
2022/03/22 04:20:07;;;;;;;10.52;6.10;;;8.80;73.60;;;;;;5055740;28;20130;-58
2022/03/22 04:22:36;;;;;;;9.30;5.90;;;8.80;73.80;;;;;;5055620;28;20051;-58
2022/03/22 04:25:04;;;;;;;9.07;6.00;;;8.80;73.70;;;;;;5021848;28;20083;-58
2022/03/22 04:33:15;;;;;;;9.73;7.25;;;8.80;74.00;;;;;;5039513;28;20391;-58
2022/03/22 04:35:42;;;;;;;10.48;6.60;;;8.80;74.30;;;;;;5037482;28;20068;-58
2022/03/22 04:38:09;;;;;;;13.95;7.03;;;8.80;74.40;;;;;;5055459;28;20051;-58
2022/03/22 04:40:39;;;;;;;13.40;7.43;;;8.80;74.50;;;;;;5055653;28;20390;-58
2022/03/22 04:43:06;;;;;;;12.57;7.53;;;8.80;74.70;;;;;;5055313;28;20056;-58
2022/03/22 04:45:35;;;;;;;8.57;5.85;;;8.90;74.90;;;;;;5037639;28;20406;-58
2022/03/22 04:48:03;;;;;;;9.60;6.57;;;8.80;75.00;;;;;;5055298;28;20095;-58
2022/03/22 04:50:31;;;;;;;9.15;6.35;;;8.80;75.30;;;;;;5055225;28;20037;-58
2022/03/22 04:58:33;;;;;;;8.52;5.53;;;8.80;75.70;;;;;;5036353;28;20079;-58
2022/03/22 05:01:01;;;;;;;10.20;6.13;;;8.80;75.70;;;;;;5055014;28;20041;-58
2022/03/22 05:03:28;;;;;;;14.23;6.15;;;8.80;75.40;;;;;;5055185;28;20045;-58
2022/03/22 05:08:42;;;;;;;9.05;5.28;;;8.90;75.60;;;;;;5054910;28;20171;-58
2022/03/22 05:11:10;;;;;;;8.73;5.82;;;8.90;75.60;;;;;;5055153;28;20414;-58
2022/03/22 05:13:37;;;;;;;8.43;5.72;;;9.00;75.60;;;;;;5037117;28;20044;-58
2022/03/22 05:16:05;;;;;;;10.50;6.40;;;9.10;75.50;;;;;;5054701;28;20095;-58
2022/03/22 05:18:34;;;;;;;8.05;6.35;;;9.20;75.30;;;;;;5036643;28;20052;-59
2022/03/22 05:21:06;;;;;;;8.98;5.70;;;9.30;75.20;;;;;;5036929;28;20048;-59
2022/03/22 05:23:36;;;;;;;10.05;6.47;;;9.50;74.90;;;;;;5029602;28;20444;-59
2022/03/22 05:26:04;;;;;;;10.68;6.05;;;9.60;74.60;;;;;;5025825;28;20099;-58
2022/03/22 05:28:33;;;;;;;7.80;5.82;;;9.70;74.50;;;;;;5010888;28;20510;-58
2022/03/22 05:31:00;;;;;;;7.95;5.07;;;9.90;74.50;;;;;;5033271;28;20037;-58
2022/03/22 05:33:28;;;;;;;6.95;5.65;;;10.10;74.30;;;;;;4995477;28;20439;-58
2022/03/22 05:35:56;;;;;;;9.23;5.85;;;10.30;74.00;;;;;;5042662;28;20095;-58
2022/03/22 05:38:27;;;;;;;11.15;6.22;;;10.40;73.70;;;;;;5013054;28;20460;-58
2022/03/22 05:40:56;;;;;;;7.35;4.90;;;10.50;73.10;;;;;;5033252;28;20045;-58
2022/03/22 05:43:26;;;;;;;8.93;6.20;;;10.70;72.70;;;;;;5012561;28;20064;-58
2022/03/22 05:45:54;;;;;;;8.93;6.07;;;10.80;72.90;;;;;;5034052;28;20041;-58
2022/03/22 05:48:23;;;;;;;11.48;5.80;;;11.00;72.40;;;;;;5000323;28;20046;-58
2022/03/22 05:50:51;;;;;;;10.25;6.15;;;11.10;72.20;;;;;;5016494;28;20046;-58
2022/03/22 05:53:18;;;;;;;7.80;5.95;;;11.30;72.10;;;;;;5017152;28;20447;-58
2022/03/22 05:55:46;;;;;;;9.35;6.05;;;11.40;72.10;;;;;;5034238;28;20045;-58
2022/03/22 05:58:14;;;;;;;10.23;6.13;;;11.50;71.60;;;;;;5000363;28;20111;-58
2022/03/22 06:00:42;;;;;;;9.65;6.10;;;11.70;71.40;;;;;;5016495;28;20049;-58
2022/03/22 06:03:09;;;;;;;9.73;5.75;;;11.90;71.10;;;;;;5000073;28;20045;-58
2022/03/22 06:05:37;;;;;;;10.20;5.50;;;12.00;70.70;;;;;;5033955;28;20083;-58
2022/03/22 06:08:05;;;;;;;8.60;5.47;;;12.10;70.50;;;;;;4999901;28;20041;-58
2022/03/22 06:10:35;;;;;;;7.57;5.00;;;12.30;70.10;;;;;;5016376;28;20507;-58
2022/03/22 06:13:03;;;;;;;8.52;5.57;;;12.50;69.90;;;;;;5016241;28;20053;-58
2022/03/22 06:15:31;;;;;;;11.30;5.00;;;12.60;69.80;;;;;;5032719;28;20045;-58
2022/03/22 06:18:04;;;;;;;10.10;6.13;;;12.80;70.00;;;;;;5033758;28;20065;-58
2022/03/22 06:20:37;;;;;;;8.65;6.45;;;12.90;69.80;;;;;;5033967;28;20095;-58
2022/03/22 06:23:07;;;;;;;12.10;6.72;;;13.10;69.60;;;;;;5016393;28;20443;-58
2022/03/22 06:25:35;;;;;;;9.68;6.47;;;13.20;69.60;;;;;;4999844;28;20079;-58
2022/03/22 06:28:06;;;;;;;8.68;5.72;;;13.40;69.90;;;;;;5032367;28;20049;-58
2022/03/22 06:30:34;;;;;;;6.93;5.32;;;13.50;70.00;;;;;;5033552;28;20045;-58
2022/03/22 06:33:10;;;;;;;7.68;5.70;;;13.70;70.00;;;;;;5015874;28;20128;-58
2022/03/22 06:35:39;;;;;;;6.07;5.13;;;13.80;69.80;;;;;;5033421;28;20559;-58
2022/03/22 06:38:06;;;;;;;8.20;5.75;;;13.80;69.70;;;;;;5016029;28;20057;-59
2022/03/22 06:40:37;;;;;;;8.93;5.32;;;13.80;68.30;;;;;;5015807;28;20103;-59
2022/03/22 06:43:07;;;;;;;8.95;5.20;;;13.80;67.90;;;;;;5016197;28;20063;-59
2022/03/22 06:45:38;;;;;;;7.40;4.93;;;13.90;68.30;;;;;;5033499;28;20061;-59
2022/03/22 06:48:09;;;;;;;7.10;4.80;;;14.10;68.50;;;;;;5015865;28;20087;-59
2022/03/22 06:50:38;;;;;;;8.07;6.03;;;14.10;67.60;;;;;;5015853;28;20077;-58
2022/03/22 06:53:07;;;;;;;9.30;5.03;;;14.10;66.80;;;;;;5033339;28;20400;-59
2022/03/22 06:55:36;;;;;;;7.00;4.75;;;14.00;66.00;;;;;;4999402;28;20387;-58
2022/03/22 06:58:05;;;;;;;6.97;4.55;;;14.10;64.90;;;;;;5033482;28;20136;-58
2022/03/22 07:00:33;;;;;;;7.00;5.00;;;14.20;64.60;;;;;;5033190;28;20552;-58
2022/03/22 07:03:03;;;;;;;6.72;4.68;;;14.20;64.00;;;;;;5033178;28;20048;-58
2022/03/22 07:05:31;;;;;;;7.70;4.53;;;14.30;63.00;;;;;;5015703;28;20045;-58
2022/03/22 07:07:59;;;;;;;10.07;4.75;;;14.40;62.60;;;;;;5015606;28;20049;-59
2022/03/22 07:10:27;;;;;;;8.45;4.63;;;14.50;62.30;;;;;;5015554;28;20065;-59
2022/03/22 07:13:01;;;;;;;11.82;5.22;;;14.60;61.90;;;;;;5033325;28;20034;-59
2022/03/22 07:15:33;;;;;;;8.07;4.32;;;14.70;61.90;;;;;;5015869;28;20050;-59
2022/03/22 07:18:03;;;;;;;8.82;4.82;;;14.80;62.20;;;;;;5032945;28;20483;-59
2022/03/22 07:20:32;;;;;;;5.63;3.97;;;14.90;61.50;;;;;;5015650;28;20053;-58
2022/03/22 07:23:01;;;;;;;6.30;4.57;;;14.90;61.90;;;;;;5018962;28;20049;-58
2022/03/22 07:25:28;;;;;;;7.18;5.03;;;14.90;62.30;;;;;;5019836;28;20483;-59
2022/03/22 07:27:56;;;;;;;6.88;4.75;;;14.90;61.70;;;;;;5003408;28;20369;-59
2022/03/22 07:30:24;;;;;;;6.68;4.80;;;14.70;62.00;;;;;;5003202;28;20049;-59
2022/03/22 07:32:51;;;;;;;7.25;4.55;;;14.70;62.30;;;;;;5019418;28;20377;-59
2022/03/22 07:35:19;;;;;;;7.13;4.75;;;14.60;62.90;;;;;;5036807;28;20124;-59
2022/03/22 07:37:48;;;;;;;7.38;4.85;;;14.80;62.60;;;;;;5036870;28;20041;-59
2022/03/22 07:40:16;;;;;;;9.32;5.55;;;14.90;61.30;;;;;;5003368;28;20038;-59
2022/03/22 07:42:44;;;;;;;7.68;4.32;;;14.90;60.20;;;;;;5036824;28;20037;-59
2022/03/22 07:45:12;;;;;;;6.82;4.43;;;15.10;60.30;;;;;;5019026;28;20488;-58
2022/03/22 07:47:41;;;;;;;8.20;4.43;;;14.90;59.50;;;;;;5019022;28;20073;-59
2022/03/22 07:53:05;;;;;;;5.18;3.50;;;15.00;59.60;;;;;;5036864;28;20060;-58
2022/03/22 07:55:38;;;;;;;7.60;3.58;;;15.20;59.50;;;;;;5019017;28;20049;-59
2022/03/22 07:58:07;;;;;;;9.90;4.47;;;15.20;57.80;;;;;;5018956;28;20133;-59
2022/03/22 08:00:38;;;;;;;6.15;3.40;;;15.10;57.70;;;;;;5018703;28;20077;-59
2022/03/22 08:03:09;;;;;;;7.45;4.97;;;15.20;57.90;;;;;;5036603;28;20383;-58
2022/03/22 08:05:38;;;;;;;7.40;4.85;;;15.10;58.60;;;;;;5002636;28;20111;-58
2022/03/22 08:08:06;;;;;;;6.40;3.67;;;14.90;59.10;;;;;;5036398;28;20074;-59
2022/03/22 08:10:54;;;;;;;8.45;4.22;;;14.90;59.50;;;;;;5002173;28;20100;-58
2022/03/22 08:13:21;;;;;;;7.68;4.57;;;15.00;59.10;;;;;;5036481;28;20052;-58
2022/03/22 08:15:49;;;;;;;7.38;4.45;;;15.00;58.90;;;;;;5036133;28;20041;-58
2022/03/22 08:18:17;;;;;;;8.02;4.85;;;15.00;58.80;;;;;;5018297;28;20045;-58
2022/03/22 08:20:44;;;;;;;7.18;4.70;;;14.90;59.00;;;;;;5035995;28;20045;-58
2022/03/22 08:23:12;;;;;;;6.75;4.05;;;15.10;59.60;;;;;;5018364;28;20160;-58
2022/03/22 08:25:43;;;;;;;5.95;3.78;;;15.10;59.60;;;;;;5018378;28;20045;-58
2022/03/22 08:28:12;;;;;;;6.72;4.40;;;15.30;59.90;;;;;;5034889;28;20056;-58
2022/03/22 08:30:40;;;;;;;5.75;3.85;;;15.30;58.40;;;;;;5018321;28;20045;-58
2022/03/22 08:33:10;;;;;;;5.85;3.72;;;15.30;55.90;;;;;;5018249;28;20052;-58
2022/03/22 08:35:52;;;;;;;7.38;3.55;;;15.10;55.50;;;;;;5036077;28;20045;-58
2022/03/22 08:38:20;;;;;;;6.38;4.43;;;15.00;55.80;;;;;;5018283;28;20049;-58
2022/03/22 08:40:49;;;;;;;8.65;3.88;;;14.90;56.20;;;;;;5035674;28;20037;-58
2022/03/22 08:43:19;;;;;;;8.18;3.92;;;15.00;57.70;;;;;;5018112;28;20045;-58
2022/03/22 08:45:47;;;;;;;6.28;4.10;;;15.00;56.20;;;;;;5035974;28;20132;-58
2022/03/22 08:48:14;;;;;;;9.10;4.20;;;15.00;57.00;;;;;;5035499;28;20499;-58
2022/03/22 08:50:47;;;;;;;8.80;4.90;;;15.00;57.40;;;;;;5002028;28;20054;-58
2022/03/22 08:53:16;;;;;;;5.55;4.45;;;15.10;57.30;;;;;;5018245;28;20051;-58
2022/03/22 08:55:47;;;;;;;6.82;4.22;;;15.10;55.20;;;;;;5035344;28;20096;-58
2022/03/22 08:58:16;;;;;;;6.25;3.63;;;15.20;55.00;;;;;;5035152;28;20045;-58
2022/03/22 09:00:45;;;;;;;5.38;3.83;;;15.10;56.00;;;;;;5001285;28;20049;-58
2022/03/22 09:03:14;;;;;;;6.13;3.72;;;15.20;56.70;;;;;;5017987;28;20455;-59
2022/03/22 09:08:29;;;;;;;6.63;4.43;;;15.50;57.30;;;;;;5035449;28;20042;-58
2022/03/22 09:10:56;;;;;;;6.75;4.28;;;15.40;57.00;;;;;;5017732;28;20041;-58
2022/03/22 09:13:28;;;;;;;7.57;4.13;;;15.40;56.80;;;;;;5035133;28;20072;-58
2022/03/22 09:15:56;;;;;;;7.50;4.35;;;15.30;57.10;;;;;;5017449;28;20396;-58
2022/03/22 09:18:25;;;;;;;6.93;4.50;;;15.40;57.60;;;;;;5034961;28;20136;-59
2022/03/22 09:20:53;;;;;;;8.77;4.70;;;15.60;57.40;;;;;;5000966;28;20050;-58
2022/03/22 09:23:21;;;;;;;6.65;4.40;;;15.60;55.40;;;;;;5017777;28;20048;-59
2022/03/22 09:25:50;;;;;;;7.57;4.38;;;15.60;56.00;;;;;;5017298;28;20060;-58
2022/03/22 09:28:18;;;;;;;9.13;4.25;;;15.50;56.90;;;;;;5017190;28;20045;-59
2022/03/22 09:30:48;;;;;;;7.43;4.05;;;15.60;56.70;;;;;;5017241;28;20045;-59
2022/03/22 09:33:16;;;;;;;7.00;4.68;;;15.40;54.60;;;;;;5034714;28;20047;-59
2022/03/22 09:35:46;;;;;;;7.30;4.53;;;15.30;53.70;;;;;;5017227;28;20441;-58
2022/03/22 09:38:16;;;;;;;7.65;4.45;;;15.20;54.20;;;;;;5017416;28;20065;-58
2022/03/22 09:40:43;;;;;;;8.32;4.80;;;15.10;55.10;;;;;;5000574;28;20495;-58
2022/03/22 09:43:12;;;;;;;6.78;4.10;;;15.10;55.60;;;;;;5017162;28;20058;-58
2022/03/22 09:45:43;;;;;;;5.43;4.15;;;15.30;56.20;;;;;;5033986;28;20063;-58
2022/03/22 09:48:14;;;;;;;6.97;4.85;;;15.40;55.70;;;;;;5000791;28;20503;-59
2022/03/22 09:53:28;;;;;;;;;;;15.80;56.40;;;;;;5016909;28;20045;-59
2022/03/22 09:55:56;;;;;;;6.28;4.28;;;16.00;56.90;;;;;;5016811;28;19928;-59
2022/03/22 09:58:24;;;;;;;9.13;4.55;;;16.10;57.90;;;;;;5034227;28;20057;-59
2022/03/22 10:00:51;;;;;;;5.75;3.83;;;16.20;57.70;;;;;;5034197;28;20128;-59
2022/03/22 10:03:20;;;;;;;9.60;4.85;;;16.30;57.70;;;;;;5016614;28;20096;-58
2022/03/22 10:06:04;;;;;;;7.78;4.50;;;16.30;58.20;;;;;;5016786;28;20042;-59
2022/03/22 10:08:31;;;;;;;7.43;4.03;;;16.30;58.20;;;;;;5033081;28;20141;-59
2022/03/22 10:11:01;;;;;;;6.38;4.45;;;16.20;58.00;;;;;;5032864;28;20041;-59
2022/03/22 10:13:29;;;;;;;8.18;4.18;;;16.20;58.50;;;;;;5032666;28;20069;-59
2022/03/22 10:16:03;;;;;;;6.57;4.43;;;16.20;59.40;;;;;;5033970;28;20088;-59
2022/03/22 10:18:34;;;;;;;7.75;4.38;;;16.10;59.10;;;;;;5016488;28;20068;-59
2022/03/22 10:21:04;;;;;;;6.45;4.00;;;16.30;59.30;;;;;;5013360;28;20112;-59
2022/03/22 10:23:35;;;;;;;6.97;3.95;;;16.40;59.40;;;;;;5012939;28;20073;-58
2022/03/22 10:26:05;;;;;;;7.68;3.60;;;16.50;59.10;;;;;;5014070;28;20049;-59
2022/03/22 10:28:34;;;;;;;5.20;3.88;;;16.40;59.00;;;;;;5014001;28;20370;-59
2022/03/22 10:31:02;;;;;;;8.52;5.30;;;16.40;58.90;;;;;;5012957;28;20041;-58
2022/03/22 10:33:29;;;;;;;7.32;4.53;;;16.40;59.40;;;;;;5012721;28;20404;-58
2022/03/22 10:35:57;;;;;;;6.00;3.60;;;16.50;59.80;;;;;;5014164;28;20052;-58
2022/03/22 10:38:28;;;;;;;7.13;4.60;;;16.60;60.40;;;;;;5014035;28;20069;-59
2022/03/22 10:40:55;;;;;;;6.40;4.50;;;16.50;59.70;;;;;;5013866;28;20049;-58
2022/03/22 10:43:26;;;;;;;7.10;4.60;;;16.40;58.80;;;;;;4996652;28;20056;-59
2022/03/22 10:46:09;;;;;;;6.63;4.10;;;16.60;58.80;;;;;;4980606;28;20054;-58
2022/03/22 10:48:39;;;;;;;6.45;4.18;;;16.40;57.30;;;;;;5013898;28;20069;-58
2022/03/22 10:51:06;;;;;;;5.15;4.22;;;16.50;57.50;;;;;;5012451;28;20084;-58
2022/03/22 10:53:35;;;;;;;7.93;5.15;;;16.40;58.30;;;;;;5012600;28;20121;-58
2022/03/22 10:56:07;;;;;;;7.00;4.90;;;16.40;58.40;;;;;;5014273;28;20096;-58
2022/03/22 10:58:35;;;;;;;7.63;5.50;;;16.40;57.30;;;;;;5017618;28;20050;-58
2022/03/22 11:01:06;;;;;;;9.38;5.03;;;16.50;58.60;;;;;;5018045;28;20057;-59
2022/03/22 11:03:34;;;;;;;10.70;6.00;;;16.60;57.70;;;;;;5017868;28;20042;-59
2022/03/22 11:06:04;;;;;;;6.95;5.22;;;16.50;57.00;;;;;;5017736;28;20045;-58
2022/03/22 11:08:32;;;;;;;6.40;4.55;;;16.60;58.30;;;;;;5017553;28;20046;-59
2022/03/22 11:11:09;;;;;;;6.72;4.40;;;16.60;58.00;;;;;;5016348;28;20046;-59
2022/03/22 11:14:03;;;;;;;7.10;5.15;;;16.60;57.00;;;;;;5029541;28;20046;-58
2022/03/22 11:16:33;;;;;;;8.15;4.82;;;16.60;57.50;;;;;;5017355;28;20042;-59
2022/03/22 11:19:33;;;;;;;8.45;4.35;;;16.40;58.20;;;;;;5016106;28;20092;-58
2022/03/22 11:22:08;;;;;;;6.15;4.85;;;16.50;58.60;;;;;;5015315;28;20132;-59
2022/03/22 11:24:37;;;;;;;7.95;5.15;;;16.40;58.20;;;;;;5015460;28;20073;-59
2022/03/22 11:27:07;;;;;;;8.75;4.55;;;16.40;57.40;;;;;;4998921;28;20488;-58
2022/03/22 11:29:39;;;;;;;8.07;4.82;;;16.30;55.00;;;;;;4999014;28;20519;-59
2022/03/22 11:34:58;;;;;;;7.93;4.53;;;16.20;55.60;;;;;;4998649;28;20046;-58
2022/03/22 11:37:33;;;;;;;8.05;4.47;;;16.30;55.60;;;;;;4998676;28;20049;-58
2022/03/22 11:42:57;;;;;;;6.47;5.20;;;16.10;57.60;;;;;;5015126;28;20046;-58
2022/03/22 11:45:25;;;;;;;9.73;4.70;;;16.00;57.10;;;;;;4998737;28;20050;-59
2022/03/22 11:47:54;;;;;;;6.10;4.70;;;16.00;55.30;;;;;;5008588;28;20540;-59
2022/03/22 11:50:24;;;;;;;7.75;4.90;;;16.00;54.90;;;;;;4993767;28;20138;-59
2022/03/22 11:52:58;;;;;;;8.15;4.28;;;15.90;54.10;;;;;;5003913;28;20052;-59
2022/03/22 11:55:26;;;;;;;12.00;4.85;;;15.90;54.80;;;;;;5005960;28;20053;-59
2022/03/22 11:58:01;;;;;;;8.93;5.13;;;15.80;55.10;;;;;;5003486;28;20511;-60
2022/03/22 12:01:00;;;;;;;8.63;5.35;;;15.90;54.70;;;;;;5044205;28;20099;-59
2022/03/22 12:03:35;;;;;;;8.48;5.25;;;16.00;55.40;;;;;;5027488;28;20037;-59
2022/03/22 12:06:12;;;;;;;6.32;3.88;;;16.10;55.30;;;;;;5024117;28;20064;-60
2022/03/22 12:08:42;;;;;;;8.07;4.53;;;16.10;54.90;;;;;;5025310;28;20038;-59
2022/03/22 12:11:16;;;;;;;9.05;3.90;;;16.10;53.30;;;;;;5027657;28;20048;-59
2022/03/22 12:13:49;;;;;;;7.03;4.05;;;16.10;54.90;;;;;;5026765;28;20041;-59
2022/03/22 12:16:17;;;;;;;6.72;4.60;;;16.00;54.50;;;;;;5034923;28;20064;-59
2022/03/22 12:18:45;;;;;;;8.38;4.55;;;15.90;54.90;;;;;;5031130;28;20049;-60
2022/03/22 12:21:19;;;;;;;8.27;4.32;;;15.90;56.40;;;;;;5038189;28;20057;-59
2022/03/22 12:23:50;;;;;;;6.30;4.00;;;15.90;55.80;;;;;;5036530;28;20547;-60
2022/03/22 12:26:17;;;;;;;6.18;4.30;;;16.00;54.40;;;;;;5017663;28;20025;-60
2022/03/22 12:28:50;;;;;;;8.00;4.50;;;16.00;55.90;;;;;;5023333;28;20478;-59
2022/03/22 12:31:21;;;;;;;8.65;5.45;;;16.10;57.10;;;;;;5017416;28;20095;-59
2022/03/22 12:33:56;;;;;;;11.32;4.70;;;16.00;58.50;;;;;;5027655;28;20045;-60
2022/03/22 12:36:24;;;;;;;8.05;5.05;;;16.10;57.60;;;;;;5017143;28;20041;-59
2022/03/22 12:38:52;;;;;;;9.63;4.95;;;16.10;56.70;;;;;;5029267;28;20038;-59
2022/03/22 12:41:22;;;;;;;9.55;4.65;;;16.10;57.90;;;;;;5034242;28;20057;-59
2022/03/22 12:43:50;;;;;;;8.65;4.88;;;16.00;59.30;;;;;;5027527;28;20045;-59
2022/03/22 12:46:19;;;;;;;8.52;5.25;;;15.70;60.30;;;;;;5005432;28;20034;-58
2022/03/22 12:48:50;;;;;;;9.20;5.35;;;15.60;61.50;;;;;;5022143;28;20065;-59
2022/03/22 12:51:18;;;;;;;14.00;5.25;;;15.50;61.90;;;;;;5034732;28;20090;-59
2022/03/22 12:53:52;;;;;;;9.57;4.60;;;15.50;64.00;;;;;;5010408;28;20048;-60
2022/03/22 12:56:22;;;;;;;7.65;4.93;;;15.50;64.50;;;;;;5040124;28;20439;-59
2022/03/22 12:58:51;;;;;;;8.10;5.18;;;15.50;63.30;;;;;;4994062;28;20041;-59
2022/03/22 13:01:19;;;;;;;8.85;5.78;;;15.50;61.90;;;;;;5033766;28;20099;-61
2022/03/22 13:03:46;;;;;;;13.50;5.38;;;15.40;62.90;;;;;;5031948;28;20095;-59
2022/03/22 13:06:14;;;;;;;11.32;5.97;;;15.40;65.40;;;;;;5027983;28;20045;-59
2022/03/22 13:11:28;;;;;;;30.25;18.60;;;15.50;62.80;;;;;;4999290;28;20041;-59
2022/03/22 13:16:49;;;;;;;9.50;5.10;;;15.80;64.90;;;;;;5027846;28;20037;-59
2022/03/22 13:19:18;;;;;;;9.75;5.85;;;15.80;61.50;;;;;;5024725;28;20034;-60
2022/03/22 13:21:45;;;;;;;9.40;5.50;;;15.80;63.60;;;;;;5016231;28;20056;-60
2022/03/22 13:24:22;;;;;;;6.82;5.47;;;15.70;65.00;;;;;;5029986;28;20035;-60
2022/03/22 13:26:58;;;;;;;;;;;15.70;65.40;;;;;;5042068;28;20083;-60
2022/03/22 13:29:35;;;;;;;9.17;5.90;;;15.70;66.00;;;;;;5014709;28;19925;-60
2022/03/22 13:32:04;;;;;;;;;;;15.80;64.40;;;;;;5015414;28;20517;-60
2022/03/22 13:34:34;;;;;;;12.43;6.55;;;15.80;64.80;;;;;;5025087;28;19921;-60
2022/03/22 13:37:09;;;;;;;9.88;5.13;;;15.80;65.20;;;;;;5033923;28;20045;-60
2022/03/22 13:39:42;;;;;;;14.25;6.20;;;15.70;65.30;;;;;;5026527;28;20053;-60
2022/03/22 13:42:15;;;;;;;7.13;5.18;;;15.50;65.80;;;;;;5012746;28;20033;-60